createdAt,value
2022-09-01T00:00:02.813Z,19.77
2022-09-01T00:02:34.893Z,19.84
2022-09-01T00:05:05.398Z,19.88
2022-09-01T00:07:34.878Z,19.49
2022-09-01T00:10:03.721Z,18.99
2022-09-01T00:12:31.445Z,19.56
2022-09-01T00:14:59.804Z,19.50
2022-09-01T00:17:31.575Z,19.28
2022-09-01T00:20:01.347Z,18.94
2022-09-01T00:22:39.401Z,19.07
2022-09-01T00:25:09.312Z,19.29
2022-09-01T00:27:38.967Z,19.26
2022-09-01T00:30:07.960Z,19.31
2022-09-01T00:32:36.191Z,19.23
2022-09-01T00:35:09.148Z,19.07
2022-09-01T00:37:37.177Z,18.80
2022-09-01T00:40:05.629Z,18.68
2022-09-01T00:42:33.394Z,18.62
2022-09-01T00:45:00.987Z,18.45
2022-09-01T00:47:31.807Z,18.45
2022-09-01T00:50:00.133Z,18.62
2022-09-01T00:52:30.364Z,18.65
2022-09-01T00:55:01.842Z,18.53
2022-09-01T00:57:29.514Z,18.52
2022-09-01T00:59:58.003Z,18.57
2022-09-01T01:02:28.414Z,18.48
2022-09-01T01:04:59.493Z,18.41
2022-09-01T01:07:29.808Z,18.34
2022-09-01T01:10:00.081Z,18.52
2022-09-01T01:12:28.886Z,18.61
2022-09-01T01:14:57.185Z,18.69
2022-09-01T01:17:25.130Z,18.95
2022-09-01T01:20:10.823Z,18.78
2022-09-01T01:22:58.973Z,19.06
2022-09-01T01:25:29.877Z,18.57
2022-09-01T01:28:04.976Z,18.91
2022-09-01T01:30:35.581Z,18.67
2022-09-01T01:33:03.746Z,18.98
2022-09-01T01:35:31.889Z,18.90
2022-09-01T01:38:00.715Z,19.14
2022-09-01T01:40:31.280Z,19.06
2022-09-01T01:43:01.373Z,19.04
2022-09-01T01:45:29.378Z,18.70
2022-09-01T01:48:01.202Z,18.59
2022-09-01T01:50:33.264Z,18.53
2022-09-01T01:53:11.019Z,18.60
2022-09-01T01:55:40.559Z,18.50
2022-09-01T01:58:14.664Z,18.40
2022-09-01T02:00:47.511Z,18.21
2022-09-01T02:03:17.314Z,18.53
2022-09-01T02:05:44.993Z,18.44
2022-09-01T02:08:13.177Z,18.81
2022-09-01T02:10:44.866Z,18.57
2022-09-01T02:13:21.241Z,18.81
2022-09-01T02:15:49.848Z,19.07
2022-09-01T02:18:19.996Z,18.39
2022-09-01T02:20:49.472Z,18.14
2022-09-01T02:23:18.084Z,18.50
2022-09-01T02:26:14.591Z,18.41
2022-09-01T02:28:42.514Z,18.65
2022-09-01T02:31:13.379Z,18.83
2022-09-01T02:33:45.672Z,18.84
2022-09-01T02:36:14.203Z,18.85
2022-09-01T02:38:46.627Z,18.73
2022-09-01T02:41:18.300Z,18.44
2022-09-01T02:43:46.312Z,18.63
2022-09-01T02:46:14.879Z,18.43
2022-09-01T02:48:46.233Z,18.60
2022-09-01T02:51:16.015Z,18.22
2022-09-01T02:53:46.716Z,18.53
2022-09-01T02:56:18.195Z,18.21
2022-09-01T02:58:48.257Z,18.58
2022-09-01T03:01:20.558Z,18.59
2022-09-01T03:03:51.431Z,18.52
2022-09-01T03:06:24.283Z,18.63
2022-09-01T03:08:52.510Z,18.64
2022-09-01T03:11:23.954Z,18.61
2022-09-01T03:13:53.328Z,18.30
2022-09-01T03:16:22.547Z,18.23
2022-09-01T03:18:52.678Z,18.25
2022-09-01T03:21:23.349Z,18.34
2022-09-01T03:23:56.070Z,18.47
2022-09-01T03:26:24.593Z,18.24
2022-09-01T03:28:53.930Z,17.94
2022-09-01T03:31:27.564Z,18.19
2022-09-01T03:34:03.471Z,18.48
2022-09-01T03:36:33.506Z,18.48
2022-09-01T03:39:01.659Z,18.45
2022-09-01T03:41:32.006Z,16.86
2022-09-01T03:44:01.143Z,18.41
2022-09-01T03:46:34.484Z,18.18
2022-09-01T03:49:06.845Z,18.43
2022-09-01T03:51:34.982Z,18.47
2022-09-01T03:54:02.894Z,18.56
2022-09-01T03:56:31.157Z,18.30
2022-09-01T03:59:00.006Z,18.24
2022-09-01T04:01:31.652Z,18.12
2022-09-01T04:04:01.277Z,18.11
2022-09-01T04:06:30.477Z,17.89
2022-09-01T04:09:02.760Z,17.86
2022-09-01T04:11:31.021Z,17.84
2022-09-01T04:13:58.682Z,17.81
2022-09-01T04:16:45.049Z,17.72
2022-09-01T04:19:21.207Z,17.83
2022-09-01T04:21:51.715Z,17.88
2022-09-01T04:24:20.264Z,17.94
2022-09-01T04:26:48.720Z,17.87
2022-09-01T04:29:18.754Z,18.21
2022-09-01T04:31:53.676Z,18.16
2022-09-01T04:34:24.880Z,17.99
2022-09-01T04:37:00.146Z,18.15
2022-09-01T04:39:30.420Z,16.77
2022-09-01T04:41:58.649Z,18.10
2022-09-01T04:44:32.347Z,18.21
2022-09-01T04:47:00.421Z,18.37
2022-09-01T04:49:29.832Z,18.51
2022-09-01T04:51:58.188Z,18.50
2022-09-01T04:54:28.113Z,18.42
2022-09-01T04:56:56.105Z,17.94
2022-09-01T04:59:29.731Z,18.00
2022-09-01T05:02:00.759Z,18.24
2022-09-01T05:04:33.944Z,17.77
2022-09-01T05:07:02.097Z,17.78
2022-09-01T05:09:30.189Z,17.60
2022-09-01T05:11:58.617Z,18.10
2022-09-01T05:14:26.291Z,18.29
2022-09-01T05:16:57.717Z,18.34
2022-09-01T05:19:26.853Z,18.23
2022-09-01T05:21:58.347Z,18.52
2022-09-01T05:24:39.785Z,18.71
2022-09-01T05:27:10.827Z,18.11
2022-09-01T05:29:40.798Z,18.67
2022-09-01T05:32:11.266Z,18.89
2022-09-01T05:34:39.799Z,18.98
2022-09-01T05:37:09.771Z,18.93
2022-09-01T05:39:38.222Z,19.19
2022-09-01T05:42:08.841Z,19.24
2022-09-01T05:44:36.900Z,18.68
2022-09-01T05:47:06.611Z,19.10
2022-09-01T05:49:36.246Z,19.18
2022-09-01T05:52:09.280Z,19.38
2022-09-01T05:54:41.400Z,19.34
2022-09-01T05:57:32.742Z,19.44
2022-09-01T05:59:59.504Z,19.22
2022-09-01T06:02:28.813Z,19.40
2022-09-01T06:04:57.567Z,19.27
2022-09-01T06:07:28.709Z,17.79
2022-09-01T06:09:58.049Z,19.23
2022-09-01T06:12:29.453Z,19.47
2022-09-01T06:14:58.041Z,19.38
2022-09-01T06:17:28.137Z,19.26
2022-09-01T06:19:56.797Z,19.15
2022-09-01T06:22:25.020Z,18.77
2022-09-01T06:25:00.998Z,18.37
2022-09-01T06:27:31.551Z,18.30
2022-09-01T06:30:15.276Z,18.34
2022-09-01T06:32:51.098Z,18.45
2022-09-01T06:35:19.473Z,18.29
2022-09-01T06:37:48.745Z,18.34
2022-09-01T06:40:18.553Z,18.29
2022-09-01T06:42:49.291Z,18.33
2022-09-01T06:45:21.000Z,16.71
2022-09-01T06:47:57.657Z,18.27
2022-09-01T06:53:37.304Z,18.36
2022-09-01T06:56:09.059Z,18.59
2022-09-01T06:58:40.432Z,18.64
2022-09-01T07:01:16.100Z,18.82
2022-09-01T07:03:43.990Z,18.73
2022-09-01T07:06:59.008Z,18.61
2022-09-01T07:09:38.577Z,18.56
2022-09-01T07:17:39.520Z,19.02
2022-09-01T07:20:26.809Z,19.15
2022-09-01T07:23:03.962Z,19.02
2022-09-01T07:25:35.798Z,19.05
2022-09-01T07:28:21.756Z,19.04
2022-09-01T07:30:56.821Z,19.27
2022-09-01T07:36:31.956Z,19.80
2022-09-01T07:44:39.742Z,19.22
2022-09-01T07:47:51.685Z,19.34
2022-09-01T07:50:37.444Z,19.07
2022-09-01T07:52:49.693Z,19.16
2022-09-01T07:55:28.130Z,19.23
2022-09-01T07:57:56.469Z,19.44
2022-09-01T08:00:24.449Z,19.44
2022-09-01T08:03:01.553Z,19.62
2022-09-01T08:05:30.119Z,19.92
2022-09-01T08:08:18.594Z,20.06
2022-09-01T08:10:49.058Z,20.11
2022-09-01T08:13:20.831Z,20.26
2022-09-01T08:16:08.655Z,20.49
2022-09-01T08:18:49.777Z,20.34
2022-09-01T08:21:19.310Z,20.25
2022-09-01T08:23:47.954Z,20.59
2022-09-01T08:26:16.475Z,20.56
2022-09-01T08:28:54.404Z,20.45
2022-09-01T08:31:24.081Z,20.59
2022-09-01T08:33:54.042Z,20.50
2022-09-01T08:36:24.787Z,20.51
2022-09-01T08:38:58.779Z,20.31
2022-09-01T08:41:36.728Z,20.26
2022-09-01T08:44:07.723Z,19.92
2022-09-01T08:46:38.847Z,19.99
2022-09-01T08:49:24.818Z,18.33
2022-09-01T08:51:54.715Z,20.02
2022-09-01T08:54:29.989Z,20.19
2022-09-01T08:57:00.827Z,20.42
2022-09-01T08:59:28.713Z,20.39
2022-09-01T09:01:58.785Z,20.46
2022-09-01T09:04:36.413Z,20.39
2022-09-01T09:07:06.277Z,20.66
2022-09-01T09:09:38.350Z,20.29
2022-09-01T09:12:10.086Z,20.52
2022-09-01T09:14:49.526Z,20.29
2022-09-01T09:17:17.524Z,20.45
2022-09-01T09:19:47.438Z,20.33
2022-09-01T09:22:19.409Z,20.77
2022-09-01T09:24:51.212Z,20.68
2022-09-01T09:27:23.162Z,20.47
2022-09-01T09:29:53.476Z,20.27
2022-09-01T09:32:39.468Z,20.34
2022-09-01T09:35:21.540Z,20.49
2022-09-01T09:37:49.138Z,20.33
2022-09-01T09:40:18.377Z,20.45
2022-09-01T09:43:01.618Z,20.47
2022-09-01T09:45:33.960Z,20.54
2022-09-01T09:48:04.453Z,19.30
2022-09-01T09:50:34.787Z,20.82
2022-09-01T09:53:17.457Z,20.57
2022-09-01T09:55:56.394Z,20.55
2022-09-01T09:58:26.782Z,20.84
2022-09-01T10:01:03.964Z,21.18
2022-09-01T10:03:37.574Z,20.97
2022-09-01T10:06:07.352Z,21.37
2022-09-01T10:08:45.525Z,21.38
2022-09-01T10:11:15.607Z,21.54
2022-09-01T10:13:44.151Z,21.53
2022-09-01T10:16:21.855Z,21.31
2022-09-01T10:18:52.804Z,21.04
2022-09-01T10:21:25.979Z,20.57
2022-09-01T10:23:54.696Z,20.60
2022-09-01T10:26:24.764Z,20.63
2022-09-01T10:28:54.980Z,20.73
2022-09-01T10:31:29.562Z,20.99
2022-09-01T10:34:01.512Z,21.27
2022-09-01T10:36:32.406Z,21.33
2022-09-01T10:39:05.332Z,21.81
2022-09-01T10:41:48.461Z,22.01
2022-09-01T10:44:19.788Z,22.08
2022-09-01T10:46:51.314Z,21.86
2022-09-01T10:49:27.723Z,21.94
2022-09-01T10:52:03.274Z,22.04
2022-09-01T10:55:07.894Z,20.20
2022-09-01T10:57:42.839Z,21.36
2022-09-01T11:00:41.434Z,21.39
2022-09-01T11:03:31.797Z,22.03
2022-09-01T11:06:17.498Z,22.27
2022-09-01T11:08:57.868Z,22.04
2022-09-01T11:11:28.485Z,21.93
2022-09-01T11:13:59.031Z,21.82
2022-09-01T11:16:50.502Z,21.81
2022-09-01T11:19:37.653Z,22.11
2022-09-01T11:22:16.695Z,22.01
2022-09-01T11:25:00.367Z,21.68
2022-09-01T11:27:59.615Z,21.80
2022-09-01T11:30:34.436Z,22.66
2022-09-01T11:33:05.869Z,23.32
2022-09-01T11:35:33.965Z,23.30
2022-09-01T11:38:09.707Z,23.63
2022-09-01T11:40:38.839Z,23.40
2022-09-01T11:43:12.418Z,23.73
2022-09-01T11:45:42.434Z,23.70
2022-09-01T11:48:13.665Z,23.33
2022-09-01T11:50:42.203Z,23.36
2022-09-01T11:53:10.429Z,23.29
2022-09-01T11:55:41.964Z,22.99
2022-09-01T11:58:17.146Z,22.77
2022-09-01T12:00:45.991Z,23.02
2022-09-01T12:03:23.511Z,23.44
2022-09-01T12:05:55.147Z,23.22
2022-09-01T12:08:24.175Z,22.87
2022-09-01T12:11:02.065Z,22.58
2022-09-01T12:13:29.795Z,22.47
2022-09-01T12:16:17.543Z,22.33
2022-09-01T12:18:48.486Z,22.54
2022-09-01T12:21:19.325Z,22.91
2022-09-01T12:23:48.624Z,23.25
2022-09-01T12:26:21.137Z,24.09
2022-09-01T12:28:49.882Z,23.79
2022-09-01T12:31:18.288Z,22.36
2022-09-01T12:33:46.310Z,24.51
2022-09-01T12:36:27.182Z,24.33
2022-09-01T12:38:55.200Z,24.40
2022-09-01T12:41:29.075Z,25.27
2022-09-01T12:43:57.055Z,25.76
2022-09-01T12:46:44.198Z,25.45
2022-09-01T12:49:19.929Z,24.89
2022-09-01T12:51:48.997Z,24.98
2022-09-01T12:54:21.321Z,24.67
2022-09-01T12:56:54.248Z,24.26
2022-09-01T12:59:36.354Z,23.56
2022-09-01T13:02:29.196Z,23.44
2022-09-01T13:04:57.350Z,23.25
2022-09-01T13:07:25.536Z,23.24
2022-09-01T13:09:55.997Z,24.01
2022-09-01T13:12:25.511Z,24.11
2022-09-01T13:15:04.223Z,24.50
2022-09-01T13:17:32.075Z,24.54
2022-09-01T13:20:00.456Z,24.59
2022-09-01T13:22:28.216Z,24.09
2022-09-01T13:24:57.342Z,24.48
2022-09-01T13:27:32.246Z,24.68
2022-09-01T13:29:59.937Z,25.05
2022-09-01T13:32:27.654Z,25.23
2022-09-01T13:34:55.751Z,24.79
2022-09-01T13:37:27.295Z,24.82
2022-09-01T13:39:55.023Z,24.64
2022-09-01T13:42:22.869Z,24.02
2022-09-01T13:44:57.951Z,23.92
2022-09-01T13:47:29.809Z,24.10
2022-09-01T13:50:10.414Z,24.45
2022-09-01T13:52:41.988Z,24.53
2022-09-01T13:55:12.055Z,24.39
2022-09-01T13:57:45.216Z,24.06
2022-09-01T14:00:17.383Z,23.85
2022-09-01T14:02:51.254Z,23.61
2022-09-01T14:05:22.384Z,23.87
2022-09-01T14:07:50.015Z,24.64
2022-09-01T14:10:22.351Z,25.04
2022-09-01T14:12:51.465Z,25.28
2022-09-01T14:15:26.466Z,25.82
2022-09-01T14:17:56.282Z,26.55
2022-09-01T14:20:29.031Z,27.34
2022-09-01T14:22:59.493Z,27.32
2022-09-01T14:25:27.148Z,27.48
2022-09-01T14:27:54.910Z,27.75
2022-09-01T14:30:30.484Z,27.81
2022-09-01T14:32:59.532Z,28.03
2022-09-01T14:35:34.293Z,27.87
2022-09-01T14:38:02.775Z,26.41
2022-09-01T14:40:30.939Z,25.59
2022-09-01T14:42:58.736Z,24.28
2022-09-01T14:45:31.307Z,24.97
2022-09-01T14:48:00.744Z,24.41
2022-09-01T14:50:32.173Z,24.16
2022-09-01T14:53:04.746Z,24.26
2022-09-01T14:55:33.057Z,24.03
2022-09-01T14:58:00.996Z,24.09
2022-09-01T15:00:31.467Z,24.05
2022-09-01T15:02:59.665Z,23.81
2022-09-01T15:05:27.775Z,24.04
2022-09-01T15:07:56.031Z,24.01
2022-09-01T15:10:25.693Z,24.02
2022-09-01T15:12:54.343Z,24.54
2022-09-01T15:15:27.011Z,24.83
2022-09-01T15:17:56.322Z,25.11
2022-09-01T15:20:45.037Z,25.43
2022-09-01T15:23:12.699Z,25.89
2022-09-01T15:25:40.513Z,25.92
2022-09-01T15:28:09.402Z,25.48
2022-09-01T15:30:41.087Z,26.39
2022-09-01T15:33:15.560Z,26.78
2022-09-01T15:35:46.694Z,26.90
2022-09-01T15:38:29.785Z,26.88
2022-09-01T15:40:58.769Z,26.38
2022-09-01T15:43:36.860Z,26.86
2022-09-01T15:46:06.786Z,26.53
2022-09-01T15:48:36.193Z,26.31
2022-09-01T15:51:17.719Z,25.79
2022-09-01T15:53:47.708Z,25.33
2022-09-01T15:56:18.772Z,25.09
2022-09-01T15:59:00.798Z,24.94
2022-09-01T16:01:29.770Z,24.86
2022-09-01T16:04:02.165Z,24.64
2022-09-01T16:06:30.170Z,24.62
2022-09-01T16:08:58.071Z,24.69
2022-09-01T16:11:25.990Z,24.74
2022-09-01T16:13:54.004Z,24.56
2022-09-01T16:16:32.753Z,24.54
2022-09-01T16:19:03.479Z,24.23
2022-09-01T16:21:33.643Z,24.21
2022-09-01T16:24:05.954Z,24.26
2022-09-01T16:26:36.416Z,24.03
2022-09-01T16:29:06.904Z,24.10
2022-09-01T16:31:36.780Z,24.28
2022-09-01T16:34:10.065Z,24.13
2022-09-01T16:36:39.428Z,23.90
2022-09-01T16:39:12.385Z,23.78
2022-09-01T16:41:44.080Z,23.77
2022-09-01T16:44:17.476Z,23.73
2022-09-01T16:46:47.958Z,23.81
2022-09-01T16:49:18.195Z,24.15
2022-09-01T16:51:48.729Z,24.00
2022-09-01T16:54:20.740Z,23.80
2022-09-01T16:56:50.726Z,23.81
2022-09-01T16:59:21.539Z,23.79
2022-09-01T17:01:52.450Z,23.48
2022-09-01T17:04:23.899Z,23.66
2022-09-01T17:06:57.138Z,23.79
2022-09-01T17:09:41.268Z,23.84
2022-09-01T17:12:29.307Z,23.70
2022-09-01T17:14:59.756Z,23.16
2022-09-01T17:17:34.763Z,23.56
2022-09-01T17:20:07.177Z,23.79
2022-09-01T17:22:37.620Z,23.44
2022-09-01T17:25:09.817Z,23.39
2022-09-01T17:27:40.074Z,23.42
2022-09-01T17:30:08.292Z,23.29
2022-09-01T17:32:54.377Z,23.26
2022-09-01T17:35:29.889Z,23.24
2022-09-01T17:38:00.420Z,23.34
2022-09-01T17:40:30.035Z,23.17
2022-09-01T17:43:01.388Z,23.37
2022-09-01T17:45:30.551Z,23.33
2022-09-01T17:48:01.025Z,23.40
2022-09-01T17:50:31.859Z,23.31
2022-09-01T17:53:02.086Z,23.17
2022-09-01T17:55:38.215Z,23.06
2022-09-01T17:58:10.677Z,23.12
2022-09-01T18:00:40.115Z,23.12
2022-09-01T18:03:13.149Z,22.94
2022-09-01T18:05:44.188Z,22.79
2022-09-01T18:08:19.262Z,22.57
2022-09-01T18:10:49.149Z,22.52
2022-09-01T18:13:25.901Z,22.54
2022-09-01T18:16:05.225Z,22.56
2022-09-01T18:18:36.821Z,22.56
2022-09-01T18:21:07.041Z,22.55
2022-09-01T18:23:38.591Z,22.70
2022-09-01T18:26:24.559Z,22.50
2022-09-01T18:28:56.454Z,22.42
2022-09-01T18:31:35.155Z,22.39
2022-09-01T18:34:05.125Z,22.30
2022-09-01T18:36:40.173Z,22.35
2022-09-01T18:39:08.946Z,22.40
2022-09-01T18:41:39.137Z,22.31
2022-09-01T18:44:15.520Z,22.45
2022-09-01T18:46:49.567Z,22.39
2022-09-01T18:49:19.280Z,22.62
2022-09-01T18:51:52.387Z,22.65
2022-09-01T18:54:21.150Z,22.69
2022-09-01T18:56:53.734Z,22.46
2022-09-01T18:59:36.674Z,22.31
2022-09-01T19:02:10.436Z,22.43
2022-09-01T19:04:39.983Z,22.48
2022-09-01T19:07:11.818Z,22.43
2022-09-01T19:09:42.242Z,22.53
2022-09-01T19:12:14.144Z,22.36
2022-09-01T19:14:44.453Z,22.40
2022-09-01T19:17:17.822Z,22.32
2022-09-01T19:19:47.866Z,22.40
2022-09-01T19:22:18.067Z,22.32
2022-09-01T19:24:47.409Z,22.27
2022-09-01T19:27:16.056Z,22.32
2022-09-01T19:29:48.267Z,22.35
2022-09-01T19:32:19.049Z,22.41
2022-09-01T19:34:47.754Z,22.40
2022-09-01T19:37:17.792Z,22.30
2022-09-01T19:39:53.378Z,22.20
2022-09-01T19:42:22.737Z,22.18
2022-09-01T19:44:51.575Z,21.95
2022-09-01T19:47:21.317Z,22.03
2022-09-01T19:49:50.018Z,21.83
2022-09-01T19:52:33.153Z,21.82
2022-09-01T19:55:05.101Z,21.78
2022-09-01T19:57:35.865Z,21.65
2022-09-01T20:00:08.349Z,21.82
2022-09-01T20:02:37.812Z,21.75
2022-09-01T20:05:08.409Z,21.80
2022-09-01T20:07:38.345Z,21.69
2022-09-01T20:10:18.586Z,21.55
2022-09-01T20:12:48.022Z,21.55
2022-09-01T20:15:18.136Z,21.48
2022-09-01T20:17:49.279Z,21.63
2022-09-01T20:20:17.756Z,21.68
2022-09-01T20:22:51.278Z,21.65
2022-09-01T20:25:21.548Z,21.65
2022-09-01T20:27:54.095Z,21.53
2022-09-01T20:30:26.742Z,21.26
2022-09-01T20:32:59.894Z,21.28
2022-09-01T20:35:30.979Z,21.15
2022-09-01T20:38:00.187Z,21.07
2022-09-01T20:40:34.839Z,20.96
2022-09-01T20:43:10.101Z,20.99
2022-09-01T20:45:38.226Z,21.01
2022-09-01T20:48:06.953Z,20.87
2022-09-01T20:50:42.960Z,20.91
2022-09-01T20:53:24.545Z,20.99
2022-09-01T20:55:55.062Z,21.15
2022-09-01T20:58:26.755Z,21.03
2022-09-01T21:00:57.322Z,20.92
2022-09-01T21:03:33.902Z,21.01
2022-09-01T21:06:06.941Z,20.96
2022-09-01T21:08:43.130Z,20.99
2022-09-01T21:11:20.817Z,20.75
2022-09-01T21:13:53.266Z,20.47
2022-09-01T21:16:22.584Z,20.68
2022-09-01T21:18:55.281Z,20.72
2022-09-01T21:21:26.961Z,20.75
2022-09-01T21:23:57.300Z,20.57
2022-09-01T21:26:26.251Z,20.62
2022-09-01T21:28:55.211Z,20.73
2022-09-01T21:31:24.349Z,20.68
2022-09-01T21:33:53.955Z,20.82
2022-09-01T21:36:21.577Z,20.66
2022-09-01T21:38:51.426Z,20.76
2022-09-01T21:41:19.132Z,20.81
2022-09-01T21:43:48.611Z,20.64
2022-09-01T21:46:19.913Z,20.61
2022-09-01T21:48:52.504Z,20.75
2022-09-01T21:51:22.814Z,19.53
2022-09-01T21:53:54.518Z,20.67
2022-09-01T21:56:25.793Z,20.67
2022-09-01T21:58:58.366Z,20.60
2022-09-01T22:01:31.001Z,20.55
2022-09-01T22:04:01.255Z,20.44
2022-09-01T22:06:32.206Z,20.38
2022-09-01T22:09:00.966Z,20.34
2022-09-01T22:11:29.036Z,20.35
2022-09-01T22:13:59.672Z,19.96
2022-09-01T22:16:29.684Z,19.88
2022-09-01T22:18:57.293Z,19.63
2022-09-01T22:21:27.238Z,20.03
2022-09-01T22:23:54.946Z,19.94
2022-09-01T22:26:23.662Z,20.09
2022-09-01T22:28:51.783Z,20.20
2022-09-01T22:31:22.681Z,20.15
2022-09-01T22:33:54.094Z,19.90
2022-09-01T22:36:22.779Z,19.94
2022-09-01T22:39:02.488Z,20.08
2022-09-01T22:41:31.465Z,20.05
2022-09-01T22:44:02.563Z,19.90
2022-09-01T22:46:32.619Z,19.94
2022-09-01T22:49:01.307Z,20.04
2022-09-01T22:51:34.650Z,19.93
2022-09-01T22:54:02.263Z,20.08
2022-09-01T22:56:30.613Z,20.06
2022-09-01T22:59:02.599Z,19.71
2022-09-01T23:01:33.041Z,19.90
2022-09-01T23:04:01.765Z,19.97
2022-09-01T23:06:32.759Z,19.83
2022-09-01T23:09:03.426Z,19.79
2022-09-01T23:11:32.373Z,19.74
2022-09-01T23:14:00.005Z,18.88
2022-09-01T23:16:27.690Z,19.69
2022-09-01T23:18:59.192Z,19.51
2022-09-01T23:21:37.039Z,19.69
2022-09-01T23:24:05.157Z,19.81
2022-09-01T23:26:36.019Z,19.57
2022-09-01T23:29:11.947Z,19.58
2022-09-01T23:31:41.848Z,19.56
2022-09-01T23:34:15.088Z,19.56
2022-09-01T23:36:43.365Z,19.64
2022-09-01T23:41:55.428Z,19.51
2022-09-01T23:44:23.630Z,19.53
2022-09-01T23:46:53.620Z,19.43
2022-09-01T23:49:23.102Z,19.28
2022-09-01T23:51:50.730Z,19.16
2022-09-01T23:54:18.787Z,19.14
2022-09-01T23:56:46.600Z,19.10
2022-09-01T23:59:16.093Z,19.12
